Time;durP1;ratioP1;P1;durP2;ratioP2;P2;SDS_P1;SDS_P2;PMS_P1;PMS_P2;Temp;Humidity;BMP_temperature;BMP_pressure;BME280_temperature;BME280_humidity;BME280_pressure;Samples;Min_cycle;Max_cycle;Signal;HPM_P1;HPM_P2
2023/06/03 00:00:52;;;;;;;11.93;10.25;;;;;;;;;;5117686;28;20027;-78
2023/06/03 00:03:18;;;;;;;10.68;9.55;;;;;;;;;;5101001;28;20494;-77
2023/06/03 00:05:44;;;;;;;9.07;8.18;;;;;;;;;;5119896;28;20114;-76
2023/06/03 00:08:10;;;;;;;10.80;8.27;;;;;;;;;;5116239;28;20190;-78
2023/06/03 00:10:35;;;;;;;13.38;8.73;;;;;;;;;;5119127;28;20026;-78
2023/06/03 00:13:00;;;;;;;11.32;8.20;;;;;;;;;;5118645;28;20033;-79
2023/06/03 00:15:26;;;;;;;12.25;9.05;;;;;;;;;;5100208;28;20124;-76
2023/06/03 00:17:51;;;;;;;13.10;8.93;;;;;;;;;;5119183;28;20370;-76
2023/06/03 00:20:16;;;;;;;15.25;9.43;;;;;;;;;;5097279;28;20047;-75
2023/06/03 00:22:42;;;;;;;11.80;10.00;;;;;;;;;;5107984;28;20035;-75
2023/06/03 00:25:08;;;;;;;12.23;9.60;;;;;;;;;;5109378;28;20032;-77
2023/06/03 00:27:34;;;;;;;10.88;9.32;;;;;;;;;;5117599;28;20048;-77
2023/06/03 00:30:00;;;;;;;14.30;10.65;;;;;;;;;;5119753;28;20027;-76
2023/06/03 00:32:25;;;;;;;19.95;10.25;;;;;;;;;;5117324;28;20404;-77
2023/06/03 00:34:51;;;;;;;14.90;10.52;;;;;;;;;;5118240;28;20026;-78
2023/06/03 00:37:16;;;;;;;15.63;10.50;;;;;;;;;;5096863;28;20579;-77
2023/06/03 00:39:41;;;;;;;16.00;10.30;;;;;;;;;;5104141;28;20051;-79
2023/06/03 00:42:07;;;;;;;17.45;9.35;;;;;;;;;;5118434;27;20094;-78
2023/06/03 00:44:33;;;;;;;11.07;8.20;;;;;;;;;;5120243;27;20024;-79
2023/06/03 00:46:58;;;;;;;12.98;7.88;;;;;;;;;;5121239;27;20053;-79
2023/06/03 00:49:23;;;;;;;8.50;7.65;;;;;;;;;;5121322;27;20030;-78
2023/06/03 00:51:49;;;;;;;13.85;8.43;;;;;;;;;;5119534;27;20028;-79
2023/06/03 00:54:15;;;;;;;9.70;7.43;;;;;;;;;;5108251;27;20036;-80
2023/06/03 00:56:44;;;;;;;11.18;7.57;;;;;;;;;;5120167;27;20571;-78
2023/06/03 00:59:15;;;;;;;9.07;8.20;;;;;;;;;;5112264;27;20042;-77
2023/06/03 01:01:42;;;;;;;9.88;8.00;;;;;;;;;;5111480;27;20043;-81
2023/06/03 01:04:08;;;;;;;8.80;8.00;;;;;;;;;;5107995;27;20028;-79
2023/06/03 01:06:45;;;;;;;9.55;8.55;;;;;;;;;;5120234;27;20030;-76
2023/06/03 01:09:29;;;;;;;9.60;8.68;;;;;;;;;;5118252;27;20062;-77
2023/06/03 01:12:15;;;;;;;9.65;8.60;;;;;;;;;;5123520;27;20110;-79
2023/06/03 01:14:48;;;;;;;9.55;8.63;;;;;;;;;;5120358;27;20038;-79
2023/06/03 01:17:16;;;;;;;11.23;8.80;;;;;;;;;;5119357;27;20047;-75
2023/06/03 01:19:49;;;;;;;9.23;8.32;;;;;;;;;;5103426;27;20046;-79
2023/06/03 01:22:20;;;;;;;11.02;9.07;;;;;;;;;;5118234;27;20039;-81
2023/06/03 01:24:45;;;;;;;10.80;9.70;;;;;;;;;;5121113;27;20353;-76
2023/06/03 01:27:12;;;;;;;10.10;9.13;;;;;;;;;;5122959;27;20023;-75
2023/06/03 01:29:38;;;;;;;13.23;9.38;;;;;;;;;;5120520;27;20026;-76
2023/06/03 01:32:04;;;;;;;11.27;9.02;;;;;;;;;;5121100;27;20019;-76
2023/06/03 01:34:30;;;;;;;10.45;9.45;;;;;;;;;;5115638;27;20032;-76
2023/06/03 01:36:56;;;;;;;16.08;9.88;;;;;;;;;;5107973;27;20483;-75
2023/06/03 01:39:21;;;;;;;9.23;8.43;;;;;;;;;;5118522;27;20438;-77
2023/06/03 01:41:47;;;;;;;10.25;9.07;;;;;;;;;;5106045;27;20050;-76
2023/06/03 01:44:13;;;;;;;10.30;9.27;;;;;;;;;;5118793;27;20933;-76
2023/06/03 01:46:38;;;;;;;12.07;9.60;;;;;;;;;;5120511;27;20023;-79
2023/06/03 01:49:06;;;;;;;10.23;9.23;;;;;;;;;;5120761;27;20057;-78
2023/06/03 01:51:31;;;;;;;12.38;10.00;;;;;;;;;;5118814;27;20052;-79
2023/06/03 01:53:56;;;;;;;9.77;8.85;;;;;;;;;;5121549;27;20351;-78
2023/06/03 01:56:22;;;;;;;9.70;8.80;;;;;;;;;;5120106;27;20027;-78
2023/06/03 01:58:47;;;;;;;12.07;9.50;;;;;;;;;;5111107;27;20244;-78
2023/06/03 02:01:13;;;;;;;10.23;8.93;;;;;;;;;;5098552;27;20042;-76
2023/06/03 02:03:39;;;;;;;9.98;9.13;;;;;;;;;;5120374;27;20015;-77
2023/06/03 02:06:05;;;;;;;9.75;8.85;;;;;;;;;;5120463;27;20030;-76
2023/06/03 02:08:31;;;;;;;9.13;8.23;;;;;;;;;;5119672;27;20138;-78
2023/06/03 02:10:56;;;;;;;9.32;7.88;;;;;;;;;;5116697;27;20127;-81
2023/06/03 02:13:21;;;;;;;8.85;7.93;;;;;;;;;;5108276;27;20031;-78
2023/06/03 02:15:47;;;;;;;9.07;8.27;;;;;;;;;;5115564;27;20061;-75
2023/06/03 02:18:12;;;;;;;9.52;8.63;;;;;;;;;;5108207;27;20035;-76
2023/06/03 02:20:37;;;;;;;9.68;8.50;;;;;;;;;;5118519;27;20064;-77
2023/06/03 02:23:03;;;;;;;10.70;8.70;;;;;;;;;;5117570;27;20678;-75
2023/06/03 02:25:29;;;;;;;12.95;8.45;;;;;;;;;;5104153;27;20031;-77
2023/06/03 02:27:55;;;;;;;9.30;8.43;;;;;;;;;;5114625;27;20050;-77
2023/06/03 02:30:21;;;;;;;9.00;7.75;;;;;;;;;;5119771;27;20429;-79
2023/06/03 02:32:47;;;;;;;10.38;8.57;;;;;;;;;;5122457;27;20039;-77
2023/06/03 02:35:12;;;;;;;9.20;8.30;;;;;;;;;;5119519;27;20389;-79
2023/06/03 02:37:38;;;;;;;11.00;7.68;;;;;;;;;;5112665;27;20070;-76
2023/06/03 02:40:05;;;;;;;7.80;7.00;;;;;;;;;;5111116;27;20095;-77
2023/06/03 02:42:30;;;;;;;8.30;7.60;;;;;;;;;;5104203;27;20437;-79
2023/06/03 02:44:56;;;;;;;8.45;7.63;;;;;;;;;;5122130;27;20023;-78
2023/06/03 02:47:21;;;;;;;7.82;7.15;;;;;;;;;;5120855;27;20019;-79
2023/06/03 02:49:46;;;;;;;8.85;7.22;;;;;;;;;;5120279;27;20085;-78
2023/06/03 02:52:12;;;;;;;7.60;6.97;;;;;;;;;;5118002;27;20041;-79
2023/06/03 02:54:37;;;;;;;8.75;7.60;;;;;;;;;;5121254;27;20731;-77
2023/06/03 02:57:02;;;;;;;7.28;6.57;;;;;;;;;;5116548;27;20035;-75
2023/06/03 02:59:28;;;;;;;7.20;6.60;;;;;;;;;;5105139;27;20386;-77
2023/06/03 03:01:53;;;;;;;9.10;6.57;;;;;;;;;;5114172;27;20634;-76
2023/06/03 03:04:20;;;;;;;7.85;7.07;;;;;;;;;;5119574;27;20426;-76
2023/06/03 03:06:49;;;;;;;7.57;6.95;;;;;;;;;;5117412;27;20111;-80
2023/06/03 03:09:14;;;;;;;8.13;7.38;;;;;;;;;;5115909;27;20043;-76
2023/06/03 03:11:39;;;;;;;7.78;7.07;;;;;;;;;;5106657;27;20031;-77
2023/06/03 03:14:05;;;;;;;9.77;7.90;;;;;;;;;;5117458;27;20011;-77
2023/06/03 03:16:31;;;;;;;8.20;7.40;;;;;;;;;;5121118;27;20031;-78
2023/06/03 03:18:57;;;;;;;9.35;7.88;;;;;;;;;;5120409;27;20066;-77
2023/06/03 03:21:22;;;;;;;9.60;7.57;;;;;;;;;;5117129;27;20034;-78
2023/06/03 03:23:47;;;;;;;13.35;8.13;;;;;;;;;;5119247;27;20394;-75
2023/06/03 03:26:13;;;;;;;8.40;7.50;;;;;;;;;;5116505;27;20117;-77
2023/06/03 03:28:38;;;;;;;9.35;8.13;;;;;;;;;;5118163;27;20023;-77
2023/06/03 03:31:04;;;;;;;8.52;7.60;;;;;;;;;;5119698;27;20027;-79
2023/06/03 03:33:30;;;;;;;11.02;8.02;;;;;;;;;;5119588;27;20027;-78
2023/06/03 03:35:55;;;;;;;9.98;8.02;;;;;;;;;;5117738;27;20437;-79
2023/06/03 03:38:21;;;;;;;10.35;7.55;;;;;;;;;;5117596;27;20027;-78
2023/06/03 03:40:46;;;;;;;8.43;7.63;;;;;;;;;;5121040;27;20138;-77
2023/06/03 03:43:16;;;;;;;10.70;8.00;;;;;;;;;;5119050;27;20549;-76
2023/06/03 03:45:41;;;;;;;11.45;8.70;;;;;;;;;;5120429;28;20035;-78
2023/06/03 03:48:08;;;;;;;16.70;9.35;;;;;;;;;;5118087;28;20461;-77
2023/06/03 03:50:40;;;;;;;9.90;8.93;;;;;;;;;;5118235;28;20361;-78
2023/06/03 03:53:07;;;;;;;10.25;8.65;;;;;;;;;;5118299;28;20062;-78
2023/06/03 03:55:33;;;;;;;9.68;8.68;;;;;;;;;;5119512;28;20119;-80
2023/06/03 03:58:06;;;;;;;14.45;9.15;;;;;;;;;;5118333;28;20148;-77
2023/06/03 04:00:33;;;;;;;9.70;8.70;;;;;;;;;;5118510;28;20024;-77
2023/06/03 04:02:58;;;;;;;10.93;9.27;;;;;;;;;;5119607;28;20035;-78
2023/06/03 04:05:25;;;;;;;13.77;8.98;;;;;;;;;;5117500;28;20406;-76
2023/06/03 04:07:50;;;;;;;11.40;9.02;;;;;;;;;;5118002;28;20043;-77
2023/06/03 04:10:19;;;;;;;13.15;8.43;;;;;;;;;;5119058;28;20023;-80
2023/06/03 04:12:46;;;;;;;14.88;8.38;;;;;;;;;;5113987;28;20491;-77
2023/06/03 04:15:12;;;;;;;11.68;9.25;;;;;;;;;;5099788;28;20080;-76
2023/06/03 04:17:38;;;;;;;10.95;8.80;;;;;;;;;;5118778;27;20038;-76
2023/06/03 04:20:23;;;;;;;10.35;9.18;;;;;;;;;;5105669;27;20011;-78
2023/06/03 04:22:51;;;;;;;9.80;8.82;;;;;;;;;;5120341;27;20047;-78
2023/06/03 04:25:18;;;;;;;9.45;7.95;;;;;;;;;;5123050;27;20497;-78
2023/06/03 04:27:43;;;;;;;8.52;7.55;;;;;;;;;;5124199;27;20028;-79
2023/06/03 04:30:09;;;;;;;8.60;7.13;;;;;;;;;;5120364;27;20414;-78
2023/06/03 04:32:34;;;;;;;7.97;7.18;;;;;;;;;;5120463;27;20027;-77
2023/06/03 04:34:59;;;;;;;9.10;7.47;;;;;;;;;;5121343;27;20030;-77
2023/06/03 04:37:26;;;;;;;8.32;7.53;;;;;;;;;;5120971;27;20024;-76
2023/06/03 04:39:51;;;;;;;7.90;7.20;;;;;;;;;;5122715;27;20086;-76
2023/06/03 04:42:17;;;;;;;7.80;7.00;;;;;;;;;;5123276;27;20035;-78
2023/06/03 04:44:42;;;;;;;8.15;6.72;;;;;;;;;;5123543;27;20106;-77
2023/06/03 04:47:11;;;;;;;8.05;6.43;;;;;;;;;;5120875;27;20147;-79
2023/06/03 04:49:40;;;;;;;6.88;6.22;;;;;;;;;;5121812;27;20114;-78
2023/06/03 04:52:09;;;;;;;8.38;6.93;;;;;;;;;;5121466;27;20418;-78
2023/06/03 04:54:34;;;;;;;7.43;6.72;;;;;;;;;;5122530;27;20043;-77
2023/06/03 04:57:00;;;;;;;8.30;7.03;;;;;;;;;;5122881;27;20349;-78
2023/06/03 04:59:25;;;;;;;9.23;6.90;;;;;;;;;;5121568;27;20027;-77
2023/06/03 05:01:51;;;;;;;8.82;7.70;;;;;;;;;;5119840;27;20358;-77
2023/06/03 05:04:19;;;;;;;11.52;7.82;;;;;;;;;;5122714;27;20124;-79
2023/06/03 05:06:45;;;;;;;8.17;7.37;;;;;;;;;;5122856;27;20542;-77
2023/06/03 05:09:10;;;;;;;10.20;7.50;;;;;;;;;;5120709;27;20147;-78
2023/06/03 05:11:36;;;;;;;10.85;7.18;;;;;;;;;;5121115;27;20066;-77
2023/06/03 05:14:01;;;;;;;10.20;8.07;;;;;;;;;;5119699;27;20047;-77
2023/06/03 05:16:27;;;;;;;8.32;6.95;;;;;;;;;;5122639;27;20045;-77
2023/06/03 05:18:52;;;;;;;9.30;6.75;;;;;;;;;;5120553;27;20031;-79
2023/06/03 05:21:19;;;;;;;7.63;6.82;;;;;;;;;;5123410;27;20106;-78
2023/06/03 05:23:45;;;;;;;6.63;5.95;;;;;;;;;;5123065;27;20020;-79
2023/06/03 05:26:10;;;;;;;6.10;5.60;;;;;;;;;;5121245;27;20484;-75
2023/06/03 05:28:35;;;;;;;6.82;6.18;;;;;;;;;;5120878;27;20019;-79
2023/06/03 05:31:01;;;;;;;8.50;6.47;;;;;;;;;;5122888;27;20034;-75
2023/06/03 05:33:27;;;;;;;8.02;6.03;;;;;;;;;;5118860;27;20050;-79
2023/06/03 05:35:52;;;;;;;6.20;5.63;;;;;;;;;;5103783;27;20114;-78
2023/06/03 05:38:18;;;;;;;8.23;6.03;;;;;;;;;;5103367;27;20019;-77
2023/06/03 05:40:43;;;;;;;5.90;5.30;;;;;;;;;;5100198;27;20031;-76
2023/06/03 05:43:09;;;;;;;6.70;5.78;;;;;;;;;;5100604;27;20015;-76
2023/06/03 05:45:34;;;;;;;7.80;5.55;;;;;;;;;;5119121;27;20015;-77
2023/06/03 05:48:00;;;;;;;5.45;5.05;;;;;;;;;;5115857;27;20031;-81
2023/06/03 05:50:25;;;;;;;7.35;5.63;;;;;;;;;;5104738;27;20458;-80
2023/06/03 05:52:50;;;;;;;7.90;5.47;;;;;;;;;;5108994;27;20449;-80
2023/06/03 05:55:16;;;;;;;5.40;4.90;;;;;;;;;;5104241;27;20316;-77
2023/06/03 05:57:41;;;;;;;7.03;5.20;;;;;;;;;;5117485;27;20027;-79
2023/06/03 06:00:07;;;;;;;5.70;4.78;;;;;;;;;;5119174;27;20027;-76
2023/06/03 06:02:32;;;;;;;5.25;4.80;;;;;;;;;;5099356;27;20050;-82
2023/06/03 06:04:57;;;;;;;5.20;4.80;;;;;;;;;;5100632;27;20034;-78
2023/06/03 06:07:23;;;;;;;4.82;4.43;;;;;;;;;;5101950;27;20092;-80
2023/06/03 06:09:48;;;;;;;5.82;4.80;;;;;;;;;;5104766;27;20062;-80
2023/06/03 06:12:14;;;;;;;5.07;4.63;;;;;;;;;;5108903;27;20051;-78
2023/06/03 06:14:39;;;;;;;7.22;5.20;;;;;;;;;;5104741;27;20027;-77
2023/06/03 06:17:05;;;;;;;6.00;4.78;;;;;;;;;;5096415;27;20015;-76
2023/06/03 06:19:30;;;;;;;5.38;4.82;;;;;;;;;;5100287;27;20725;-79
2023/06/03 06:21:58;;;;;;;7.32;5.00;;;;;;;;;;5097666;27;20042;-83
2023/06/03 06:24:23;;;;;;;5.30;4.80;;;;;;;;;;5096932;27;20028;-82
2023/06/03 06:26:49;;;;;;;5.22;4.70;;;;;;;;;;5096453;27;20068;-78
2023/06/03 06:29:15;;;;;;;4.90;4.47;;;;;;;;;;5100221;27;20027;-77
2023/06/03 06:31:40;;;;;;;5.65;5.13;;;;;;;;;;5101909;27;20221;-82
2023/06/03 06:34:06;;;;;;;6.13;4.45;;;;;;;;;;5098309;27;20035;-79
2023/06/03 06:36:37;;;;;;;5.88;4.72;;;;;;;;;;5121209;27;20027;-79
2023/06/03 06:39:04;;;;;;;4.78;4.35;;;;;;;;;;5103471;27;20332;-79
2023/06/03 06:41:32;;;;;;;6.35;4.45;;;;;;;;;;5094829;27;20039;-80
2023/06/03 06:43:57;;;;;;;4.60;4.20;;;;;;;;;;5100285;27;20076;-79
2023/06/03 06:46:23;;;;;;;4.80;4.30;;;;;;;;;;5097705;27;20020;-78
2023/06/03 06:48:49;;;;;;;4.40;4.10;;;;;;;;;;5096477;27;20028;-77
2023/06/03 06:51:14;;;;;;;4.50;4.18;;;;;;;;;;5097852;27;20411;-79
2023/06/03 06:53:42;;;;;;;5.55;5.03;;;;;;;;;;5097162;27;20303;-77
2023/06/03 06:56:07;;;;;;;6.63;5.47;;;;;;;;;;5096719;27;20023;-80
2023/06/03 06:58:34;;;;;;;6.50;5.40;;;;;;;;;;5110687;27;20031;-78
2023/06/03 07:01:00;;;;;;;6.05;4.70;;;;;;;;;;5117586;27;20027;-78
2023/06/03 07:03:26;;;;;;;5.80;5.30;;;;;;;;;;5117803;27;20027;-78
2023/06/03 07:05:54;;;;;;;6.07;5.53;;;;;;;;;;5117938;27;20041;-77
2023/06/03 07:08:23;;;;;;;6.03;5.47;;;;;;;;;;5115649;27;20173;-80
2023/06/03 07:10:49;;;;;;;5.15;4.65;;;;;;;;;;5100981;27;20043;-82
2023/06/03 07:13:15;;;;;;;5.50;4.53;;;;;;;;;;5102772;27;20422;-78
2023/06/03 07:15:40;;;;;;;6.68;5.13;;;;;;;;;;5109287;27;20956;-77
2023/06/03 07:18:08;;;;;;;7.53;4.88;;;;;;;;;;5103328;27;20106;-82
2023/06/03 07:20:34;;;;;;;5.50;5.00;;;;;;;;;;5103160;27;20030;-80
2023/06/03 07:23:00;;;;;;;5.80;5.20;;;;;;;;;;5117226;27;20129;-79
2023/06/03 07:25:25;;;;;;;6.45;4.72;;;;;;;;;;5117926;27;20165;-77
2023/06/03 07:27:50;;;;;;;5.65;4.68;;;;;;;;;;5104087;27;20030;-79
2023/06/03 07:30:16;;;;;;;4.22;3.83;;;;;;;;;;5116984;27;20062;-83
2023/06/03 07:32:42;;;;;;;4.18;3.78;;;;;;;;;;5114496;27;20556;-78
2023/06/03 07:35:07;;;;;;;5.75;5.20;;;;;;;;;;5108998;27;20026;-81
2023/06/03 07:37:33;;;;;;;6.25;4.40;;;;;;;;;;5114007;27;20027;-88
2023/06/03 07:39:58;;;;;;;5.85;4.45;;;;;;;;;;5116939;27;20452;-83
2023/06/03 07:42:26;;;;;;;4.80;4.40;;;;;;;;;;5119964;27;20035;-81
2023/06/03 07:44:52;;;;;;;4.30;3.92;;;;;;;;;;5116642;27;20070;-83
2023/06/03 07:47:18;;;;;;;7.18;4.10;;;;;;;;;;5116565;28;20031;-80
2023/06/03 07:49:45;;;;;;;6.65;4.30;;;;;;;;;;5117253;27;20084;-83
2023/06/03 07:52:15;;;;;;;7.00;4.57;;;;;;;;;;5109565;27;20126;-77
2023/06/03 07:54:40;;;;;;;5.32;4.82;;;;;;;;;;5114218;27;20027;-84
2023/06/03 07:57:05;;;;;;;4.05;3.72;;;;;;;;;;5102656;27;20038;-86
2023/06/03 07:59:32;;;;;;;5.70;3.47;;;;;;;;;;5107022;27;20023;-82
2023/06/03 08:01:58;;;;;;;4.03;3.63;;;;;;;;;;5119169;27;20095;-85
2023/06/03 08:04:31;;;;;;;4.18;3.33;;;;;;;;;;5090240;27;20027;-82
2023/06/03 08:06:57;;;;;;;3.50;3.20;;;;;;;;;;5105167;27;20032;-83
2023/06/03 08:09:27;;;;;;;5.00;3.00;;;;;;;;;;5103102;27;20044;-82
2023/06/03 08:11:53;;;;;;;3.72;2.83;;;;;;;;;;5108647;27;20369;-81
2023/06/03 08:14:22;;;;;;;2.85;2.65;;;;;;;;;;5121333;27;20023;-77
2023/06/03 08:16:47;;;;;;;2.78;2.58;;;;;;;;;;5102998;27;20022;-79
2023/06/03 08:19:13;;;;;;;2.67;2.42;;;;;;;;;;5119006;27;20031;-78
2023/06/03 08:21:39;;;;;;;2.72;2.50;;;;;;;;;;5106741;27;20031;-78
2023/06/03 08:24:05;;;;;;;2.83;2.63;;;;;;;;;;5119457;27;20038;-78
2023/06/03 08:26:30;;;;;;;3.70;3.40;;;;;;;;;;5103443;27;20369;-80
2023/06/03 08:28:56;;;;;;;5.60;2.38;;;;;;;;;;5108141;27;20464;-83
2023/06/03 08:31:21;;;;;;;3.08;2.40;;;;;;;;;;5104811;27;20141;-80
2023/06/03 08:33:46;;;;;;;2.42;1.85;;;;;;;;;;5106906;27;20023;-83
2023/06/03 08:36:12;;;;;;;2.30;2.10;;;;;;;;;;5103887;27;21143;-83
2023/06/03 08:38:40;;;;;;;2.30;2.10;;;;;;;;;;5101884;27;20022;-81
2023/06/03 08:41:07;;;;;;;2.30;2.13;;;;;;;;;;5102884;27;20042;-80
2023/06/03 08:43:51;;;;;;;2.50;2.30;;;;;;;;;;5105170;27;20016;-81
2023/06/03 08:46:26;;;;;;;2.33;2.22;;;;;;;;;;5104221;27;20020;-80
2023/06/03 08:49:07;;;;;;;4.65;2.25;;;;;;;;;;5104263;27;20077;-80
2023/06/03 08:51:39;;;;;;;2.80;2.60;;;;;;;;;;5089625;27;20088;-77
2023/06/03 08:54:08;;;;;;;3.38;3.08;;;;;;;;;;5103232;27;20106;-79
2023/06/03 08:56:36;;;;;;;13.30;11.57;;;;;;;;;;5101480;27;20115;-78
2023/06/03 08:59:04;;;;;;;41.72;29.20;;;;;;;;;;5100461;27;20028;-77
2023/06/03 09:01:35;;;;;;;9.85;7.55;;;;;;;;;;5100952;27;20024;-79
2023/06/03 09:04:02;;;;;;;5.40;4.95;;;;;;;;;;5102227;27;20078;-79
2023/06/03 09:06:27;;;;;;;4.85;4.40;;;;;;;;;;5097830;27;20035;-79
2023/06/03 09:08:53;;;;;;;6.93;5.30;;;;;;;;;;5103487;27;20462;-79
2023/06/03 09:11:18;;;;;;;4.40;4.10;;;;;;;;;;5100793;27;20027;-78
2023/06/03 09:13:44;;;;;;;6.22;5.72;;;;;;;;;;5107653;27;20345;-79
2023/06/03 09:16:10;;;;;;;7.70;5.25;;;;;;;;;;5102767;27;20019;-79
2023/06/03 09:18:36;;;;;;;7.63;6.57;;;;;;;;;;5103076;27;20015;-77
2023/06/03 09:21:02;;;;;;;7.28;6.57;;;;;;;;;;5102350;27;20026;-80
2023/06/03 09:23:28;;;;;;;6.90;6.20;;;;;;;;;;5101590;27;20418;-78
2023/06/03 09:25:53;;;;;;;4.45;4.00;;;;;;;;;;5102101;27;20336;-78
2023/06/03 09:28:19;;;;;;;7.38;6.57;;;;;;;;;;5103157;27;20019;-81
2023/06/03 09:30:45;;;;;;;5.97;5.47;;;;;;;;;;5104386;27;20357;-80
2023/06/03 09:33:10;;;;;;;4.75;4.30;;;;;;;;;;5103268;27;20028;-77
2023/06/03 09:35:35;;;;;;;4.60;4.20;;;;;;;;;;5102831;27;20042;-78
2023/06/03 09:38:04;;;;;;;4.63;4.10;;;;;;;;;;5111433;27;20354;-82
2023/06/03 09:40:30;;;;;;;4.70;4.30;;;;;;;;;;5116195;27;20027;-80
2023/06/03 09:42:56;;;;;;;4.72;4.22;;;;;;;;;;5116890;27;20035;-78
2023/06/03 09:45:29;;;;;;;5.07;4.68;;;;;;;;;;5103241;27;20023;-79
2023/06/03 09:47:54;;;;;;;4.40;4.10;;;;;;;;;;5103009;27;20023;-80
2023/06/03 09:50:20;;;;;;;5.10;4.22;;;;;;;;;;5099062;27;20034;-79
2023/06/03 09:52:46;;;;;;;5.25;4.80;;;;;;;;;;5110826;27;20027;-78
2023/06/03 09:55:12;;;;;;;8.02;7.22;;;;;;;;;;5121875;27;20038;-80
2023/06/03 09:57:38;;;;;;;4.60;4.30;;;;;;;;;;5120336;27;20132;-80
2023/06/03 10:00:10;;;;;;;4.72;4.32;;;;;;;;;;5121845;27;20424;-79
2023/06/03 10:02:43;;;;;;;4.65;4.25;;;;;;;;;;5122346;27;20069;-78
2023/06/03 10:05:27;;;;;;;5.35;4.95;;;;;;;;;;5117389;27;20106;-80
2023/06/03 10:07:52;;;;;;;4.60;4.22;;;;;;;;;;5118539;27;20052;-79
2023/06/03 10:10:17;;;;;;;5.20;4.80;;;;;;;;;;5119443;27;20094;-78
2023/06/03 10:12:44;;;;;;;5.50;5.00;;;;;;;;;;5119748;27;20062;-79
2023/06/03 10:15:10;;;;;;;4.15;3.85;;;;;;;;;;5117864;27;20023;-78
2023/06/03 10:17:44;;;;;;;4.15;3.85;;;;;;;;;;5118070;27;20056;-78
2023/06/03 10:20:09;;;;;;;7.50;4.85;;;;;;;;;;5120116;27;20400;-79
2023/06/03 10:22:35;;;;;;;4.70;4.30;;;;;;;;;;5120200;27;20035;-80
2023/06/03 10:25:02;;;;;;;5.90;5.35;;;;;;;;;;5122760;27;20083;-77
2023/06/03 10:27:27;;;;;;;6.05;5.47;;;;;;;;;;5106257;27;20015;-80
2023/06/03 10:29:55;;;;;;;5.38;4.88;;;;;;;;;;5110802;27;20631;-81
2023/06/03 10:32:22;;;;;;;5.32;4.93;;;;;;;;;;5101487;27;20027;-76
2023/06/03 10:34:49;;;;;;;4.72;4.38;;;;;;;;;;5100915;27;20023;-80
2023/06/03 10:37:15;;;;;;;5.05;4.65;;;;;;;;;;5106611;27;20072;-81
2023/06/03 10:39:41;;;;;;;5.70;5.18;;;;;;;;;;5101146;27;20394;-80
2023/06/03 10:42:07;;;;;;;5.30;4.80;;;;;;;;;;5103398;27;20040;-79
2023/06/03 10:44:32;;;;;;;5.40;4.65;;;;;;;;;;5100682;27;20030;-79
2023/06/03 10:47:00;;;;;;;4.97;4.57;;;;;;;;;;5120973;27;20019;-76
2023/06/03 10:49:27;;;;;;;5.00;4.60;;;;;;;;;;5119304;27;20510;-80
2023/06/03 10:52:11;;;;;;;5.20;4.70;;;;;;;;;;5102906;27;20034;-82
2023/06/03 10:54:48;;;;;;;5.03;4.63;;;;;;;;;;5119333;27;20026;-80
2023/06/03 10:57:16;;;;;;;4.95;4.45;;;;;;;;;;5120289;27;20426;-80
2023/06/03 10:59:45;;;;;;;5.60;5.10;;;;;;;;;;5117446;27;20030;-81
2023/06/03 11:02:10;;;;;;;;;;;;;;;;;;5122929;27;20065;-81
2023/06/03 11:04:37;;;;;;;5.20;4.70;;;;;;;;;;5121823;27;19946;-80
2023/06/03 11:07:07;;;;;;;5.88;5.10;;;;;;;;;;5114806;27;20173;-77
2023/06/03 11:09:36;;;;;;;5.95;5.35;;;;;;;;;;5100468;27;20035;-80
2023/06/03 11:12:04;;;;;;;5.10;4.70;;;;;;;;;;5102919;27;20019;-82
2023/06/03 11:14:29;;;;;;;6.00;5.43;;;;;;;;;;5099903;27;20023;-78
2023/06/03 11:16:56;;;;;;;5.32;4.93;;;;;;;;;;5101794;27;20104;-79
2023/06/03 11:19:31;;;;;;;5.30;4.90;;;;;;;;;;5100311;27;20051;-79
2023/06/03 11:21:56;;;;;;;7.15;6.30;;;;;;;;;;5099767;27;20118;-77
2023/06/03 11:24:37;;;;;;;5.80;5.28;;;;;;;;;;5104112;27;20110;-78
2023/06/03 11:27:19;;;;;;;4.53;4.15;;;;;;;;;;5105546;27;20104;-82
2023/06/03 11:29:56;;;;;;;6.75;4.68;;;;;;;;;;5100080;27;20592;-84
2023/06/03 11:32:22;;;;;;;5.72;5.22;;;;;;;;;;5103968;27;20573;-80
2023/06/03 11:34:48;;;;;;;8.50;5.53;;;;;;;;;;5096636;27;20036;-79
2023/06/03 11:37:17;;;;;;;7.70;4.47;;;;;;;;;;5112229;27;20027;-80
2023/06/03 11:40:01;;;;;;;5.30;4.77;;;;;;;;;;5121002;27;20023;-81
2023/06/03 11:42:27;;;;;;;5.45;4.90;;;;;;;;;;5119254;27;20079;-77
2023/06/03 11:44:52;;;;;;;6.57;5.10;;;;;;;;;;5120273;27;20361;-80
2023/06/03 11:47:17;;;;;;;5.50;4.88;;;;;;;;;;5114766;27;20669;-80
2023/06/03 11:49:43;;;;;;;5.00;4.53;;;;;;;;;;5111261;27;20549;-80
2023/06/03 11:52:09;;;;;;;7.63;5.30;;;;;;;;;;5102637;27;20038;-79
2023/06/03 11:54:36;;;;;;;7.32;5.15;;;;;;;;;;5108790;27;20099;-81
2023/06/03 11:57:03;;;;;;;5.15;4.53;;;;;;;;;;5099476;27;20030;-81
2023/06/03 11:59:34;;;;;;;5.78;5.22;;;;;;;;;;5113893;28;20015;-79
2023/06/03 12:02:01;;;;;;;5.43;4.95;;;;;;;;;;5119109;28;20100;-84
2023/06/03 12:04:27;;;;;;;6.82;4.95;;;;;;;;;;5100521;27;20028;-85
2023/06/03 12:06:53;;;;;;;5.53;5.03;;;;;;;;;;5099482;28;20019;-77
2023/06/03 12:09:19;;;;;;;5.30;4.30;;;;;;;;;;5097906;28;20485;-78
2023/06/03 12:11:44;;;;;;;8.45;5.18;;;;;;;;;;5096815;28;20024;-80
2023/06/03 12:14:10;;;;;;;9.25;5.38;;;;;;;;;;5087913;28;20458;-82
2023/06/03 12:16:36;;;;;;;6.20;4.60;;;;;;;;;;5098958;27;20114;-82
2023/06/03 12:19:06;;;;;;;6.78;4.45;;;;;;;;;;5099869;27;20019;-80
2023/06/03 12:21:32;;;;;;;5.97;4.55;;;;;;;;;;5100100;28;20111;-82
2023/06/03 12:23:58;;;;;;;5.53;5.00;;;;;;;;;;5097019;27;20031;-80
2023/06/03 12:26:25;;;;;;;5.22;4.82;;;;;;;;;;5098213;27;20402;-79
2023/06/03 12:28:51;;;;;;;5.13;4.72;;;;;;;;;;5098816;28;20380;-83
2023/06/03 12:31:17;;;;;;;5.13;4.18;;;;;;;;;;5097429;28;20031;-78
2023/06/03 12:33:43;;;;;;;4.95;4.40;;;;;;;;;;5098932;28;20403;-84
2023/06/03 12:36:09;;;;;;;5.85;5.00;;;;;;;;;;5098024;28;20081;-81
2023/06/03 12:38:52;;;;;;;5.88;4.20;;;;;;;;;;5097416;27;20515;-81
2023/06/03 12:41:18;;;;;;;5.78;5.20;;;;;;;;;;5117734;27;20023;-79
2023/06/03 12:43:45;;;;;;;4.45;4.15;;;;;;;;;;5103432;27;20062;-78
2023/06/03 12:46:14;;;;;;;5.50;4.47;;;;;;;;;;5101941;27;20030;-80
2023/06/03 12:48:39;;;;;;;4.57;4.25;;;;;;;;;;5110855;27;20030;-78
2023/06/03 12:51:20;;;;;;;4.53;3.88;;;;;;;;;;5108011;27;20027;-84
2023/06/03 12:53:45;;;;;;;5.68;2.72;;;;;;;;;;5099293;27;20023;-80
2023/06/03 12:56:12;;;;;;;2.50;1.90;;;;;;;;;;5102723;27;20497;-77
2023/06/03 12:58:37;;;;;;;2.72;2.00;;;;;;;;;;5115232;27;20051;-78
2023/06/03 13:01:03;;;;;;;2.70;2.50;;;;;;;;;;5107656;27;20070;-84
2023/06/03 13:03:28;;;;;;;2.00;1.90;;;;;;;;;;5107201;27;20357;-81
2023/06/03 13:05:54;;;;;;;2.33;2.13;;;;;;;;;;5106798;27;20023;-82
2023/06/03 13:08:20;;;;;;;4.22;1.95;;;;;;;;;;5103479;27;20200;-82
2023/06/03 13:10:45;;;;;;;2.50;2.13;;;;;;;;;;5108319;27;20033;-80
2023/06/03 13:13:11;;;;;;;4.13;2.70;;;;;;;;;;5106723;27;20340;-82
2023/06/03 13:15:37;;;;;;;3.05;2.72;;;;;;;;;;5106067;27;20019;-80
2023/06/03 13:18:03;;;;;;;6.65;2.90;;;;;;;;;;5102421;27;20507;-80
2023/06/03 13:20:28;;;;;;;3.25;2.70;;;;;;;;;;5102414;27;20072;-80
2023/06/03 13:22:53;;;;;;;5.00;3.00;;;;;;;;;;5103819;27;20034;-79
2023/06/03 13:25:19;;;;;;;7.65;3.60;;;;;;;;;;5103341;27;20466;-78
2023/06/03 13:27:44;;;;;;;75.22;12.70;;;;;;;;;;5103786;27;20071;-78
2023/06/03 13:30:11;;;;;;;14.18;5.53;;;;;;;;;;5103704;27;20454;-75
2023/06/03 13:32:37;;;;;;;11.85;5.18;;;;;;;;;;5102212;27;20027;-77
2023/06/03 13:35:02;;;;;;;9.40;4.63;;;;;;;;;;5100950;27;20479;-74
2023/06/03 13:37:28;;;;;;;12.85;4.85;;;;;;;;;;5101394;27;20115;-77
2023/06/03 13:39:53;;;;;;;8.48;4.75;;;;;;;;;;5115687;27;20119;-76
2023/06/03 13:42:20;;;;;;;8.95;4.60;;;;;;;;;;5116983;27;20059;-77
2023/06/03 13:44:45;;;;;;;6.82;3.78;;;;;;;;;;5120171;27;20069;-75
2023/06/03 13:47:11;;;;;;;5.20;3.13;;;;;;;;;;5116050;27;20072;-76
2023/06/03 13:49:36;;;;;;;4.45;3.65;;;;;;;;;;5101733;28;20022;-76
2023/06/03 13:52:01;;;;;;;5.80;3.63;;;;;;;;;;5120621;27;20027;-78
2023/06/03 13:54:27;;;;;;;4.03;3.45;;;;;;;;;;5117922;27;20059;-77
2023/06/03 13:56:55;;;;;;;4.45;3.22;;;;;;;;;;5117855;27;20022;-75
2023/06/03 13:59:21;;;;;;;8.48;3.63;;;;;;;;;;5120156;27;20087;-77
2023/06/03 14:01:47;;;;;;;5.38;3.40;;;;;;;;;;5120551;27;20038;-80
2023/06/03 14:04:12;;;;;;;3.67;3.30;;;;;;;;;;5118417;27;20039;-76
2023/06/03 14:06:38;;;;;;;3.80;3.30;;;;;;;;;;5119498;27;20413;-78
2023/06/03 14:09:03;;;;;;;4.15;3.60;;;;;;;;;;5115245;27;21146;-76
2023/06/03 14:11:29;;;;;;;5.18;3.90;;;;;;;;;;5117883;27;20023;-77
2023/06/03 14:13:54;;;;;;;8.02;4.75;;;;;;;;;;5116355;27;20036;-77
2023/06/03 14:16:24;;;;;;;4.43;4.03;;;;;;;;;;5117152;27;20445;-77
2023/06/03 14:18:49;;;;;;;5.88;3.90;;;;;;;;;;5116167;27;20019;-78
2023/06/03 14:21:15;;;;;;;5.00;4.50;;;;;;;;;;5118040;27;20460;-78
2023/06/03 14:23:40;;;;;;;5.32;4.05;;;;;;;;;;5115630;27;23331;-76
2023/06/03 14:26:06;;;;;;;4.55;3.83;;;;;;;;;;5105609;27;20466;-78
2023/06/03 14:28:31;;;;;;;5.60;3.55;;;;;;;;;;5118982;27;20425;-78
2023/06/03 14:30:56;;;;;;;11.98;4.72;;;;;;;;;;5118588;27;20027;-77
2023/06/03 14:33:24;;;;;;;14.55;5.18;;;;;;;;;;5119398;27;21510;-78
2023/06/03 14:35:49;;;;;;;7.75;4.20;;;;;;;;;;5112780;27;20114;-77
2023/06/03 14:38:15;;;;;;;6.70;3.72;;;;;;;;;;5117817;27;20155;-77